createdAt,value
2022-12-22T00:00:10.691Z,96723.81
2022-12-22T00:03:00.321Z,96734.41
2022-12-22T00:05:47.127Z,96730.72
2022-12-22T00:08:35.266Z,96729.66
2022-12-22T00:11:21.424Z,96727.03
2022-12-22T00:14:08.073Z,96717.19
2022-12-22T00:16:56.207Z,96714.25
2022-12-22T00:19:48.350Z,96713.44
2022-12-22T00:22:38.245Z,96717.16
2022-12-22T00:25:28.323Z,96724.28
2022-12-22T00:28:14.488Z,96720.47
2022-12-22T00:31:01.129Z,96707.66
2022-12-22T00:33:47.638Z,96711.53
2022-12-22T00:36:34.409Z,96715.94
2022-12-22T00:39:21.044Z,96702.22
2022-12-22T00:42:08.543Z,96701.25
2022-12-22T00:44:55.603Z,96699.22
2022-12-22T00:47:44.355Z,96709.25
2022-12-22T00:50:31.174Z,96700.28
2022-12-22T00:53:18.123Z,96699.50
2022-12-22T00:56:04.323Z,96702.03
2022-12-22T00:58:52.505Z,96694.38
2022-12-22T01:01:38.571Z,96691.00
2022-12-22T01:04:24.983Z,96691.63
2022-12-22T01:07:11.835Z,96683.75
2022-12-22T01:09:58.749Z,96677.91
2022-12-22T01:12:46.379Z,96676.88
2022-12-22T01:15:36.311Z,96684.25
2022-12-22T01:18:23.803Z,96679.50
2022-12-22T01:21:10.930Z,96673.69
2022-12-22T01:23:57.864Z,96662.13
2022-12-22T01:26:44.648Z,96669.44
2022-12-22T01:29:31.578Z,96671.03
2022-12-22T01:32:19.387Z,96674.22
2022-12-22T01:35:05.422Z,96676.38
2022-12-22T01:37:51.886Z,96667.22
2022-12-22T01:40:39.522Z,96660.63
2022-12-22T01:43:37.820Z,96655.91
2022-12-22T01:46:41.162Z,96651.88
2022-12-22T01:49:32.482Z,96653.72
2022-12-22T01:52:18.920Z,96664.88
2022-12-22T01:55:06.428Z,96648.66
2022-12-22T01:57:53.108Z,96650.34
2022-12-22T02:00:39.779Z,96640.31
2022-12-22T02:03:35.816Z,96651.44
2022-12-22T02:06:31.621Z,96646.72
2022-12-22T02:09:32.653Z,96645.72
2022-12-22T02:12:24.246Z,96643.13
2022-12-22T02:15:30.003Z,96642.66
2022-12-22T02:18:41.944Z,96641.13
2022-12-22T02:21:32.659Z,96637.19
2022-12-22T02:24:32.063Z,96631.03
2022-12-22T02:27:20.898Z,96628.50
2022-12-22T02:30:11.629Z,96615.94
2022-12-22T02:33:07.057Z,96610.97
2022-12-22T02:36:03.236Z,96620.75
2022-12-22T02:39:01.247Z,96619.81
2022-12-22T02:41:56.000Z,96623.63
2022-12-22T02:44:59.511Z,96628.06
2022-12-22T02:47:53.421Z,96624.38
2022-12-22T02:50:43.743Z,96619.38
2022-12-22T02:53:31.343Z,96626.22
2022-12-22T02:56:20.302Z,96620.97
2022-12-22T02:59:06.704Z,96620.00
2022-12-22T03:01:59.887Z,96625.53
2022-12-22T03:04:46.371Z,96622.88
2022-12-22T03:07:33.298Z,96611.06
2022-12-22T03:10:21.910Z,96613.75
2022-12-22T03:13:08.435Z,96609.03
2022-12-22T03:15:56.738Z,96606.13
2022-12-22T03:18:44.631Z,96604.63
2022-12-22T03:21:31.248Z,96606.81
2022-12-22T03:24:17.846Z,96600.34
2022-12-22T03:26:47.556Z,96594.56
2022-12-22T03:29:16.961Z,96600.69
2022-12-22T03:31:46.835Z,96593.63
2022-12-22T03:34:20.275Z,96586.75
2022-12-22T03:36:51.827Z,96593.13
2022-12-22T03:39:21.348Z,96593.13
2022-12-22T03:42:08.261Z,96590.47
2022-12-22T03:44:54.555Z,96592.00
2022-12-22T03:47:28.971Z,96585.63
2022-12-22T03:49:59.704Z,96586.13
2022-12-22T03:52:30.134Z,96576.03
2022-12-22T03:54:59.023Z,96581.31
2022-12-22T03:57:28.120Z,96576.34
2022-12-22T04:00:27.312Z,96574.03
2022-12-22T04:03:23.774Z,96588.34
2022-12-22T04:05:54.392Z,96584.53
2022-12-22T04:08:29.773Z,96586.59
2022-12-22T04:11:19.561Z,96589.34
2022-12-22T04:13:48.676Z,96580.31
2022-12-22T04:16:17.642Z,96590.44
2022-12-22T04:18:51.787Z,96581.63
2022-12-22T04:21:22.312Z,96589.81
2022-12-22T04:23:51.857Z,96588.28
2022-12-22T04:26:21.573Z,96581.44
2022-12-22T04:28:54.486Z,96576.25
2022-12-22T04:31:23.993Z,96575.25
2022-12-22T04:33:53.113Z,96574.50
2022-12-22T04:36:24.517Z,96568.94
2022-12-22T04:39:01.188Z,96569.00
2022-12-22T04:41:30.176Z,96573.78
2022-12-22T04:43:59.579Z,96563.41
2022-12-22T04:46:36.368Z,96558.38
2022-12-22T04:49:05.206Z,96556.31
2022-12-22T04:51:35.786Z,96563.72
2022-12-22T04:54:04.877Z,96558.75
2022-12-22T04:56:54.352Z,96559.53
2022-12-22T04:59:23.552Z,96553.97
2022-12-22T05:01:53.544Z,96558.47
2022-12-22T05:04:24.029Z,96553.94
2022-12-22T05:07:08.899Z,96546.22
2022-12-22T05:09:37.858Z,96528.25
2022-12-22T05:12:34.871Z,96527.75
2022-12-22T05:15:03.968Z,96529.31
2022-12-22T05:17:32.919Z,96523.53
2022-12-22T05:20:02.013Z,96524.03
2022-12-22T05:22:32.319Z,96536.75
2022-12-22T10:42:34.730Z,96435.59
2022-12-22T10:45:03.350Z,96436.03
2022-12-22T10:47:31.543Z,96438.03
2022-12-22T10:52:32.366Z,96429.44
2022-12-22T10:55:16.932Z,96435.00
2022-12-22T10:57:47.021Z,96439.63
2022-12-22T11:00:27.901Z,96431.53
2022-12-22T11:02:57.964Z,96447.09
2022-12-22T11:06:40.268Z,96440.56
2022-12-22T11:09:31.908Z,96447.88
2022-12-22T11:12:01.165Z,96431.31
2022-12-22T11:14:39.581Z,96421.44
2022-12-22T11:17:11.556Z,96422.44
2022-12-22T11:19:47.193Z,96419.47
2022-12-22T11:22:26.441Z,96424.53
2022-12-22T11:25:08.751Z,96426.06
2022-12-22T11:27:46.365Z,96417.38
2022-12-22T11:30:20.520Z,96413.69
2022-12-22T11:33:01.441Z,96414.06
2022-12-22T11:35:41.618Z,96405.16
2022-12-22T11:38:20.270Z,96417.00
2022-12-22T11:40:51.587Z,96423.94
2022-12-22T11:43:24.969Z,96416.34
2022-12-22T11:46:12.112Z,96416.91
2022-12-22T11:48:52.417Z,96422.34
2022-12-22T11:51:28.968Z,96445.22
2022-12-22T11:54:12.092Z,96452.03
2022-12-22T11:56:42.190Z,96449.88
2022-12-22T11:59:27.021Z,96443.97
2022-12-22T12:02:21.587Z,96443.25
2022-12-22T12:05:19.422Z,96429.00
2022-12-22T12:07:51.522Z,96420.34
2022-12-22T12:10:24.846Z,96401.91
2022-12-22T12:12:57.341Z,96388.06
2022-12-22T12:15:31.650Z,96380.91
2022-12-22T12:18:26.111Z,96376.94
2022-12-22T12:20:59.971Z,96378.31
2022-12-22T12:23:40.805Z,96384.72
2022-12-22T12:26:12.403Z,96387.13
2022-12-22T12:28:48.774Z,96388.78
2022-12-22T12:31:22.876Z,96381.84
2022-12-22T12:33:59.209Z,96382.63
2022-12-22T12:36:34.179Z,96390.56
2022-12-22T12:39:07.953Z,96394.56
2022-12-22T12:41:47.967Z,96386.03
2022-12-22T12:44:18.982Z,96378.75
2022-12-22T12:46:56.617Z,96392.31
2022-12-22T12:49:58.053Z,96387.47
2022-12-22T12:53:15.549Z,96384.59
2022-12-22T12:56:00.713Z,96394.78
2022-12-22T12:58:48.468Z,96401.47
2022-12-22T13:01:56.025Z,96393.97
2022-12-22T13:05:11.742Z,96393.81
2022-12-22T13:08:20.220Z,96389.72
2022-12-22T13:10:50.995Z,96388.00
2022-12-22T13:13:47.946Z,96381.19
2022-12-22T13:16:25.459Z,96376.78
2022-12-22T13:18:58.505Z,96383.13
2022-12-22T13:24:25.708Z,96393.47
2022-12-22T13:26:55.933Z,96389.34
2022-12-22T13:29:30.494Z,96391.84
2022-12-22T13:32:02.317Z,96400.50
2022-12-22T13:34:57.269Z,96409.81
2022-12-22T13:37:28.890Z,96396.97
2022-12-22T13:40:17.249Z,96409.13
2022-12-22T13:42:48.206Z,96408.84
2022-12-22T13:45:27.485Z,96409.66
2022-12-22T13:47:55.880Z,96405.41
2022-12-22T13:50:27.833Z,96395.41
2022-12-22T13:52:56.946Z,96407.28
2022-12-22T13:55:27.631Z,96399.66
2022-12-22T13:57:58.589Z,96393.63
2022-12-22T14:00:28.545Z,96403.94
2022-12-22T14:02:56.946Z,96392.84
2022-12-22T14:05:31.509Z,96384.28
2022-12-22T14:08:02.383Z,96386.75
2022-12-22T14:10:35.777Z,96386.38
2022-12-22T14:13:07.691Z,96377.13
2022-12-22T14:15:35.883Z,96388.53
2022-12-22T14:18:04.201Z,96383.59
2022-12-22T14:20:35.781Z,96395.09
2022-12-22T14:23:07.362Z,96390.53
2022-12-22T14:25:38.671Z,96386.78
2022-12-22T14:28:08.300Z,96396.06
2022-12-22T14:30:39.320Z,96390.31
2022-12-22T14:33:19.769Z,96395.09
2022-12-22T14:35:47.852Z,96407.19
2022-12-22T14:38:23.853Z,96402.00
2022-12-22T14:40:57.306Z,96401.81
2022-12-22T14:43:29.587Z,96402.81
2022-12-22T14:46:06.927Z,96397.28
2022-12-22T14:48:36.869Z,96406.97
2022-12-22T14:51:05.698Z,96402.00
2022-12-22T14:53:39.226Z,96414.31
2022-12-22T14:56:12.199Z,96410.22
2022-12-22T14:58:41.808Z,96417.63
2022-12-22T15:01:16.546Z,96424.63
2022-12-22T15:03:45.789Z,96427.81
2022-12-22T15:06:23.823Z,96425.72
2022-12-22T15:08:53.569Z,96429.81
2022-12-22T15:11:24.582Z,96419.91
2022-12-22T15:13:53.113Z,96420.06
2022-12-22T15:16:22.564Z,96434.38
2022-12-22T15:18:51.042Z,96426.63
2022-12-22T15:21:20.598Z,96436.75
2022-12-22T15:23:48.704Z,96433.56
2022-12-22T15:26:16.885Z,96436.34
2022-12-22T15:28:46.432Z,96440.72
2022-12-22T15:31:16.164Z,96441.69
2022-12-22T15:33:45.295Z,96438.16
2022-12-22T15:36:14.793Z,96438.16
2022-12-22T15:38:42.979Z,96438.34
2022-12-22T15:41:11.099Z,96440.91
2022-12-22T15:43:57.805Z,96452.03
2022-12-22T15:46:28.373Z,96456.31
2022-12-22T15:48:56.662Z,96459.38
2022-12-22T15:51:50.002Z,96449.25
2022-12-22T15:54:18.713Z,96454.63
2022-12-22T15:56:47.297Z,96459.69
2022-12-22T15:59:18.196Z,96464.75
2022-12-22T16:01:47.732Z,96473.28
2022-12-22T16:04:40.839Z,96478.63
2022-12-22T16:07:11.823Z,96490.34
2022-12-22T16:09:41.928Z,96474.06
2022-12-22T16:12:13.926Z,96473.28
2022-12-22T16:14:48.179Z,96483.59
2022-12-22T16:17:21.143Z,96484.19
2022-12-22T16:19:49.707Z,96487.28
2022-12-22T16:22:20.088Z,96490.34
2022-12-22T16:24:50.057Z,96495.50
2022-12-22T16:27:18.430Z,96496.91
2022-12-22T16:29:49.929Z,96495.00
2022-12-22T16:32:25.843Z,96498.66
2022-12-22T16:34:54.144Z,96495.91
2022-12-22T16:37:22.290Z,96493.59
2022-12-22T16:39:50.491Z,96497.06
2022-12-22T16:45:07.828Z,96504.44
2022-12-22T16:47:38.037Z,96504.22
2022-12-22T16:50:11.016Z,96513.75
2022-12-22T16:52:40.750Z,96519.63
2022-12-22T16:55:15.764Z,96529.84
2022-12-22T16:58:13.597Z,96520.31
2022-12-22T17:00:43.993Z,96524.59
2022-12-22T17:03:15.475Z,96538.09
2022-12-22T17:05:45.958Z,96533.81
2022-12-22T17:08:20.886Z,96534.63
2022-12-22T17:10:49.010Z,96546.34
2022-12-22T17:13:17.839Z,96550.31
2022-12-22T17:15:46.022Z,96542.97
2022-12-22T17:18:21.042Z,96543.47
2022-12-22T17:20:51.549Z,96549.13
2022-12-22T17:23:30.621Z,96548.09
2022-12-22T17:25:59.938Z,96562.72
2022-12-22T17:28:28.577Z,96555.44
2022-12-22T17:30:56.846Z,96547.81
2022-12-22T17:33:26.388Z,96552.28
2022-12-22T17:35:54.595Z,96560.03
2022-12-22T17:38:26.016Z,96550.88
2022-12-22T17:40:56.989Z,96554.06
2022-12-22T17:43:25.630Z,96549.69
2022-12-22T17:45:54.136Z,96549.13
2022-12-22T17:48:22.494Z,96547.72
2022-12-22T17:50:52.025Z,96542.84
2022-12-22T17:53:21.264Z,96535.97
2022-12-22T17:56:07.922Z,96539.78
2022-12-22T17:58:36.982Z,96536.78
2022-12-22T18:01:05.172Z,96543.13
2022-12-22T18:03:33.948Z,96546.59
2022-12-22T18:06:03.610Z,96537.66
2022-12-22T18:08:32.071Z,96536.38
2022-12-22T18:11:00.175Z,96535.19
2022-12-22T18:13:28.289Z,96536.59
2022-12-22T18:15:56.722Z,96539.13
2022-12-22T18:18:24.959Z,96539.94
2022-12-22T18:21:07.684Z,96534.09
2022-12-22T18:23:38.320Z,96537.78
2022-12-22T18:26:08.441Z,96532.41
2022-12-22T18:28:36.979Z,96535.19
2022-12-22T18:31:05.268Z,96537.88
2022-12-22T18:33:33.934Z,96532.59
2022-12-22T18:36:02.110Z,96531.59
2022-12-22T18:38:31.905Z,96528.81
2022-12-22T18:41:01.467Z,96522.88
2022-12-22T18:43:29.680Z,96526.84
2022-12-22T18:45:57.827Z,96528.03
2022-12-22T18:48:25.977Z,96524.16
2022-12-22T18:50:54.166Z,96523.88
2022-12-22T18:53:28.217Z,96529.00
2022-12-22T18:55:57.010Z,96523.53
2022-12-22T18:58:27.088Z,96523.53
2022-12-22T19:00:56.350Z,96518.78
2022-12-22T19:03:29.045Z,96519.78
2022-12-22T19:05:57.830Z,96512.75
2022-12-22T19:08:27.704Z,96514.94
2022-12-22T19:10:57.515Z,96510.56
2022-12-22T19:13:30.806Z,96509.59
2022-12-22T19:15:59.295Z,96503.81
2022-12-22T19:18:28.657Z,96497.84
2022-12-22T19:20:57.464Z,96502.13
2022-12-22T19:23:26.656Z,96504.22
2022-12-22T19:25:56.859Z,96504.22
2022-12-22T19:28:33.624Z,96500.47
2022-12-22T19:31:02.281Z,96511.25
2022-12-22T19:33:35.773Z,96501.13
2022-12-22T19:36:04.193Z,96491.50
2022-12-22T19:38:34.536Z,96495.69
2022-12-22T19:41:04.684Z,96493.66
2022-12-22T19:43:34.601Z,96487.22
2022-12-22T19:46:03.466Z,96488.22
2022-12-22T19:48:31.692Z,96480.56
2022-12-22T19:51:00.307Z,96482.34
2022-12-22T19:53:28.578Z,96480.63
2022-12-22T19:55:57.942Z,96478.53
2022-12-22T19:58:28.063Z,96477.16
2022-12-22T20:00:57.619Z,96472.88
2022-12-22T20:03:27.065Z,96482.03
2022-12-22T20:05:55.832Z,96487.00
2022-12-22T20:08:23.929Z,96484.81
2022-12-22T20:10:58.475Z,96469.53
2022-12-22T20:13:31.615Z,96473.81
2022-12-22T20:16:01.334Z,96469.34
2022-12-22T20:18:30.592Z,96467.56
2022-12-22T20:21:02.967Z,96475.50
2022-12-22T20:23:33.520Z,96465.59
2022-12-22T20:26:03.685Z,96464.41
2022-12-22T20:28:35.854Z,96467.56
2022-12-22T20:31:06.580Z,96458.50
2022-12-22T20:33:35.892Z,96459.56
2022-12-22T20:36:05.605Z,96462.78
2022-12-22T20:38:36.055Z,96454.75
2022-12-22T20:41:05.699Z,96454.75
2022-12-22T20:43:35.244Z,96453.16
2022-12-22T20:46:11.928Z,96450.53
2022-12-22T20:48:43.860Z,96439.13
2022-12-22T20:51:15.115Z,96436.63
2022-12-22T20:53:43.521Z,96438.84
2022-12-22T20:56:19.578Z,96444.50
2022-12-22T20:58:48.039Z,96443.19
2022-12-22T21:01:17.706Z,96433.38
2022-12-22T21:03:46.712Z,96433.66
2022-12-22T21:06:23.859Z,96430.63
2022-12-22T21:08:52.228Z,96441.31
2022-12-22T21:11:20.472Z,96431.66
2022-12-22T21:13:48.598Z,96419.34
2022-12-22T21:16:20.269Z,96416.75
2022-12-22T21:18:48.514Z,96423.63
2022-12-22T21:21:17.164Z,96420.16
2022-12-22T21:23:45.308Z,96418.28
2022-12-22T21:26:20.987Z,96417.75
2022-12-22T21:28:49.426Z,96413.78
2022-12-22T21:31:19.042Z,96407.16
2022-12-22T21:33:47.320Z,96411.09
2022-12-22T21:36:20.589Z,96409.53
2022-12-22T21:38:48.789Z,96408.88
2022-12-22T21:41:17.031Z,96403.97
2022-12-22T21:43:45.147Z,96408.81
2022-12-22T21:46:13.942Z,96404.34
2022-12-22T21:48:43.738Z,96404.75
2022-12-22T21:51:13.217Z,96399.22
2022-12-22T21:53:41.377Z,96408.81
2022-12-22T21:56:17.816Z,96403.69
2022-12-22T21:58:46.004Z,96395.50
2022-12-22T22:01:14.884Z,96388.59
2022-12-22T22:03:44.453Z,96380.63
2022-12-22T22:06:12.732Z,96383.91
2022-12-22T22:08:41.129Z,96383.13
2022-12-22T22:11:17.946Z,96382.69
2022-12-22T22:13:46.498Z,96375.28
2022-12-22T22:16:14.741Z,96375.78
2022-12-22T22:18:45.403Z,96370.84
2022-12-22T22:21:15.857Z,96367.91
2022-12-22T22:23:44.045Z,96368.88
2022-12-22T22:26:12.353Z,96371.50
2022-12-22T22:29:05.350Z,96373.31
2022-12-22T22:31:33.571Z,96366.78
2022-12-22T22:34:03.105Z,96360.25
2022-12-22T22:36:31.203Z,96361.13
2022-12-22T22:38:59.349Z,96355.06
2022-12-22T22:41:29.229Z,96350.22
2022-12-22T22:43:57.337Z,96346.47
2022-12-22T22:46:25.544Z,96339.44
2022-12-22T22:48:53.688Z,96340.47
2022-12-22T22:51:23.642Z,96342.03
2022-12-22T22:53:52.141Z,96335.50
2022-12-22T22:56:20.325Z,96327.38
2022-12-22T22:58:48.462Z,96317.88
2022-12-22T23:01:16.690Z,96318.09
2022-12-22T23:03:44.876Z,96311.94
2022-12-22T23:06:14.431Z,96306.00
2022-12-22T23:08:44.502Z,96311.66
2022-12-22T23:11:14.960Z,96297.47
2022-12-22T23:13:43.643Z,96294.00
2022-12-22T23:16:12.110Z,96284.09
2022-12-22T23:18:41.156Z,96286.69
2022-12-22T23:21:10.005Z,96271.31
2022-12-22T23:23:38.384Z,96271.50
2022-12-22T23:26:08.085Z,96276.69
2022-12-22T23:28:36.256Z,96271.72
2022-12-22T23:31:04.716Z,96269.97
2022-12-22T23:33:33.692Z,96267.75
2022-12-22T23:36:02.015Z,96267.19
2022-12-22T23:38:30.159Z,96269.34
2022-12-22T23:41:03.093Z,96253.41
2022-12-22T23:43:33.022Z,96249.94
2022-12-22T23:46:01.518Z,96246.97
2022-12-22T23:48:29.702Z,96254.69
2022-12-22T23:50:57.950Z,96253.41
2022-12-22T23:53:26.163Z,96251.81
2022-12-22T23:55:54.264Z,96253.22
2022-12-22T23:58:22.839Z,96248.03
